createdAt,value
2022-10-28T05:32:27.401Z,14.30
2022-10-28T05:34:54.572Z,14.30
2022-10-28T05:37:21.714Z,14.20
2022-10-28T05:39:49.034Z,14.00
2022-10-28T05:42:16.265Z,14.00
2022-10-28T05:44:44.171Z,14.30
2022-10-28T05:47:11.356Z,14.30
2022-10-28T05:49:38.631Z,14.20
2022-10-28T05:52:05.919Z,14.00
2022-10-28T05:54:33.264Z,13.90
2022-10-28T05:57:00.614Z,13.80
2022-10-28T05:59:28.004Z,13.60
2022-10-28T06:01:55.529Z,13.50
2022-10-28T06:04:23.087Z,13.50
2022-10-28T06:06:50.656Z,13.40
2022-10-28T06:09:19.624Z,14.70
2022-10-28T06:11:46.628Z,13.60
2022-10-28T06:14:15.007Z,13.50
2022-10-28T06:16:46.249Z,13.50
2022-10-28T06:19:15.056Z,13.50
2022-10-28T06:21:46.104Z,13.50
2022-10-28T06:24:14.146Z,13.40
2022-10-28T06:26:45.189Z,13.40
2022-10-28T06:29:13.276Z,13.30
2022-10-28T06:31:44.517Z,13.30
2022-10-28T06:34:12.518Z,13.30
2022-10-28T06:36:42.189Z,13.50
2022-10-28T06:39:15.264Z,13.70
2022-10-28T06:42:11.699Z,14.10
2022-10-28T06:45:01.055Z,14.00
2022-10-28T06:47:31.836Z,14.20
2022-10-28T06:50:00.110Z,14.20
2022-10-28T06:52:27.736Z,14.90
2022-10-28T06:54:55.685Z,15.40
2022-10-28T06:57:26.903Z,15.70
2022-10-28T06:59:57.681Z,15.70
2022-10-28T07:02:25.501Z,15.70
2022-10-28T07:04:53.200Z,16.00
2022-10-28T07:07:23.742Z,16.30
2022-10-28T07:09:56.836Z,16.50
2022-10-28T07:12:24.522Z,16.70
2022-10-28T07:14:54.326Z,16.80
2022-10-28T07:17:21.767Z,16.60
2022-10-28T07:19:52.028Z,16.80
2022-10-28T07:22:23.475Z,16.60
2022-10-28T07:24:54.830Z,16.50
2022-10-28T07:27:25.848Z,16.30
2022-10-28T07:29:53.256Z,16.30
2022-10-28T07:32:24.028Z,16.10
2022-10-28T07:34:51.487Z,16.10
2022-10-28T07:37:18.936Z,16.20
2022-10-28T07:39:49.280Z,16.10
2022-10-28T07:42:21.023Z,16.10
2022-10-28T07:44:49.317Z,16.00
2022-10-28T07:47:17.832Z,15.80
2022-10-28T07:49:45.320Z,15.10
2022-10-28T07:52:18.015Z,15.80
2022-10-28T07:55:16.284Z,15.70
2022-10-28T07:58:26.242Z,15.80
2022-10-28T08:01:35.899Z,15.80
2022-10-28T08:05:02.714Z,15.90
2022-10-28T08:08:30.277Z,16.00
2022-10-28T08:10:58.756Z,15.80
2022-10-28T08:13:43.328Z,15.70
2022-10-28T08:16:11.850Z,15.70
2022-10-28T08:22:33.432Z,15.90
2022-10-28T08:25:27.892Z,14.20
2022-10-28T08:27:58.363Z,16.50
2022-10-28T08:36:54.004Z,16.10
2022-10-28T08:39:21.425Z,16.30
2022-10-28T08:42:08.061Z,16.20
2022-10-28T08:45:04.661Z,16.20
2022-10-28T08:47:42.685Z,16.30
2022-10-28T08:50:14.662Z,16.60
2022-10-28T08:53:01.575Z,17.20
2022-10-28T08:55:36.425Z,17.60
2022-10-28T08:58:17.101Z,17.80
2022-10-28T09:00:50.547Z,17.60
2022-10-28T09:03:39.241Z,17.40
2022-10-28T09:06:09.444Z,17.40
2022-10-28T09:08:42.915Z,17.60
2022-10-28T09:14:32.057Z,17.60
2022-10-28T09:17:20.857Z,18.20
2022-10-28T09:19:52.607Z,18.20
2022-10-28T09:22:59.773Z,18.10
2022-10-28T09:26:07.420Z,17.90
2022-10-28T09:29:03.006Z,18.00
2022-10-28T09:31:53.110Z,18.00
2022-10-28T09:40:46.897Z,18.90
2022-10-28T09:43:36.861Z,19.30
2022-10-28T09:52:05.689Z,19.80
2022-10-28T09:54:39.031Z,19.80
2022-10-28T09:57:08.226Z,19.80
2022-10-28T10:02:34.157Z,19.30
2022-10-28T10:05:19.247Z,19.00
2022-10-28T10:07:56.797Z,19.30
2022-10-28T10:10:34.419Z,19.10
2022-10-28T10:13:04.803Z,18.80
2022-10-28T10:15:53.239Z,18.70
2022-10-28T10:18:27.389Z,18.80
2022-10-28T10:21:00.811Z,19.20
2022-10-28T10:23:42.830Z,19.60
2022-10-28T10:29:01.378Z,20.40
2022-10-28T10:31:35.415Z,19.60
2022-10-28T10:36:52.218Z,19.20
2022-10-28T10:39:29.938Z,19.60
2022-10-28T10:44:43.770Z,20.20
2022-10-28T10:47:16.430Z,20.50
2022-10-28T10:49:44.098Z,20.80
2022-10-28T10:52:20.440Z,20.90
2022-10-28T10:55:01.258Z,21.20
2022-10-28T10:57:29.700Z,21.20
2022-10-28T10:59:57.550Z,21.40
2022-10-28T11:02:34.957Z,21.50
2022-10-28T11:05:05.618Z,21.60
2022-10-28T11:07:33.360Z,21.30
2022-10-28T11:12:55.938Z,21.30
2022-10-28T11:15:27.044Z,21.50
2022-10-28T11:18:14.896Z,21.40
2022-10-28T11:20:54.317Z,21.60
2022-10-28T11:26:04.530Z,21.50
2022-10-28T11:29:11.914Z,21.50
2022-10-28T11:34:55.174Z,22.20
2022-10-28T11:37:50.147Z,22.50
2022-10-28T11:43:55.385Z,22.90
2022-10-28T11:46:51.103Z,23.10
2022-10-28T11:49:52.600Z,23.40
2022-10-28T11:52:59.855Z,23.30
2022-10-28T11:59:08.973Z,22.80
2022-10-28T12:01:48.253Z,22.80
2022-10-28T12:04:49.655Z,22.70
2022-10-28T12:07:46.143Z,22.60
2022-10-28T12:19:58.500Z,23.30
2022-10-28T12:22:49.307Z,23.60
2022-10-28T12:25:24.040Z,23.80
2022-10-28T12:27:56.698Z,23.70
2022-10-28T12:30:27.892Z,23.30
2022-10-28T12:33:05.030Z,23.30
2022-10-28T12:35:36.479Z,23.00
2022-10-28T12:38:29.332Z,22.70
2022-10-28T12:41:06.614Z,22.70
2022-10-28T12:47:06.182Z,22.50
2022-10-28T12:52:57.647Z,22.60
2022-10-28T12:55:39.962Z,22.60
2022-10-28T12:58:22.069Z,22.50
2022-10-28T13:00:53.933Z,22.50
2022-10-28T13:25:17.374Z,23.60
2022-10-28T13:27:45.488Z,23.50
2022-10-28T13:30:19.933Z,23.50
2022-10-28T13:32:53.360Z,23.50
2022-10-28T13:35:26.943Z,23.40
2022-10-28T13:37:56.212Z,23.20
2022-10-28T13:43:20.630Z,23.10
2022-10-28T13:45:54.635Z,22.90
2022-10-28T13:56:33.793Z,22.80
2022-10-28T13:59:17.012Z,22.80
2022-10-28T14:04:39.671Z,23.00
2022-10-28T14:07:12.991Z,23.10
2022-10-28T14:09:41.803Z,23.00
2022-10-28T14:21:09.831Z,22.90
2022-10-28T14:29:23.982Z,22.90
2022-10-28T14:31:51.284Z,22.90
2022-10-28T14:37:12.666Z,22.80
2022-10-28T14:39:56.186Z,22.70
2022-10-28T14:48:48.549Z,22.20
2022-10-28T14:51:19.772Z,22.10
2022-10-28T14:56:33.130Z,22.10
2022-10-28T14:59:19.111Z,22.00
2022-10-28T15:05:29.820Z,21.80
2022-10-28T15:10:49.683Z,21.70
2022-10-28T15:16:04.877Z,22.00
2022-10-28T15:18:32.332Z,22.00
2022-10-28T15:21:18.424Z,22.10
2022-10-28T15:26:42.577Z,22.20
2022-10-28T15:34:59.909Z,21.80
2022-10-28T15:43:17.196Z,21.30
2022-10-28T15:45:45.962Z,21.20
2022-10-28T15:48:18.974Z,21.30
2022-10-28T15:59:41.191Z,21.30
